sensor_id;sensor_type;location;lat;lon;timestamp;P1;durP1;ratioP1;P2;durP2;ratioP2
3491;SDS011;1760;52.480;13.422;2022-12-07T00:00:54;5.40;;;3.70;;
3491;SDS011;1760;52.480;13.422;2022-12-07T00:03:21;5.10;;;2.30;;
3491;SDS011;1760;52.480;13.422;2022-12-07T00:05:48;7.07;;;3.47;;
3491;SDS011;1760;52.480;13.422;2022-12-07T00:08:15;8.90;;;4.47;;
3491;SDS011;1760;52.480;13.422;2022-12-07T00:10:45;8.43;;;3.97;;
3491;SDS011;1760;52.480;13.422;2022-12-07T00:13:14;3.67;;;3.20;;
3491;SDS011;1760;52.480;13.422;2022-12-07T00:15:43;7.33;;;3.67;;
3491;SDS011;1760;52.480;13.422;2022-12-07T00:18:10;6.60;;;4.27;;
3491;SDS011;1760;52.480;13.422;2022-12-07T00:20:37;2.40;;;1.43;;
3491;SDS011;1760;52.480;13.422;2022-12-07T00:23:04;3.97;;;2.77;;
3491;SDS011;1760;52.480;13.422;2022-12-07T00:25:31;4.07;;;2.77;;
3491;SDS011;1760;52.480;13.422;2022-12-07T00:27:58;7.43;;;3.77;;
3491;SDS011;1760;52.480;13.422;2022-12-07T00:30:24;9.23;;;5.47;;
3491;SDS011;1760;52.480;13.422;2022-12-07T00:32:54;5.27;;;3.13;;
3491;SDS011;1760;52.480;13.422;2022-12-07T00:35:21;5.20;;;3.00;;
3491;SDS011;1760;52.480;13.422;2022-12-07T00:37:48;8.23;;;4.90;;
3491;SDS011;1760;52.480;13.422;2022-12-07T00:40:15;6.07;;;3.77;;
3491;SDS011;1760;52.480;13.422;2022-12-07T00:42:42;7.07;;;4.63;;
3491;SDS011;1760;52.480;13.422;2022-12-07T00:45:09;5.30;;;3.33;;
3491;SDS011;1760;52.480;13.422;2022-12-07T00:47:36;9.77;;;4.40;;
3491;SDS011;1760;52.480;13.422;2022-12-07T00:50:04;6.57;;;3.60;;
3491;SDS011;1760;52.480;13.422;2022-12-07T00:52:32;7.03;;;3.20;;
3491;SDS011;1760;52.480;13.422;2022-12-07T00:55:02;4.80;;;3.07;;
3491;SDS011;1760;52.480;13.422;2022-12-07T00:57:29;5.90;;;4.03;;
3491;SDS011;1760;52.480;13.422;2022-12-07T00:59:57;5.70;;;2.97;;
3491;SDS011;1760;52.480;13.422;2022-12-07T01:02:25;4.90;;;3.00;;
3491;SDS011;1760;52.480;13.422;2022-12-07T01:04:52;4.70;;;3.00;;
3491;SDS011;1760;52.480;13.422;2022-12-07T01:07:20;5.87;;;3.03;;
3491;SDS011;1760;52.480;13.422;2022-12-07T01:09:47;6.70;;;3.07;;
3491;SDS011;1760;52.480;13.422;2022-12-07T01:12:14;6.87;;;4.30;;
3491;SDS011;1760;52.480;13.422;2022-12-07T01:14:41;3.93;;;3.07;;
3491;SDS011;1760;52.480;13.422;2022-12-07T01:17:08;5.77;;;3.10;;
3491;SDS011;1760;52.480;13.422;2022-12-07T01:19:35;4.40;;;2.50;;
3491;SDS011;1760;52.480;13.422;2022-12-07T01:22:02;4.53;;;2.93;;
3491;SDS011;1760;52.480;13.422;2022-12-07T01:24:31;5.30;;;2.83;;
3491;SDS011;1760;52.480;13.422;2022-12-07T01:26:58;4.87;;;2.93;;
3491;SDS011;1760;52.480;13.422;2022-12-07T01:29:25;3.43;;;2.67;;
3491;SDS011;1760;52.480;13.422;2022-12-07T01:31:52;6.63;;;2.83;;
3491;SDS011;1760;52.480;13.422;2022-12-07T01:34:19;7.10;;;3.63;;
3491;SDS011;1760;52.480;13.422;2022-12-07T01:36:46;7.03;;;3.03;;
3491;SDS011;1760;52.480;13.422;2022-12-07T01:39:13;5.07;;;3.50;;
3491;SDS011;1760;52.480;13.422;2022-12-07T01:41:41;3.87;;;2.60;;
3491;SDS011;1760;52.480;13.422;2022-12-07T01:44:15;4.67;;;2.27;;
3491;SDS011;1760;52.480;13.422;2022-12-07T01:46:49;4.90;;;2.70;;
3491;SDS011;1760;52.480;13.422;2022-12-07T01:49:25;5.47;;;2.53;;
3491;SDS011;1760;52.480;13.422;2022-12-07T01:51:58;3.30;;;2.20;;
3491;SDS011;1760;52.480;13.422;2022-12-07T01:54:30;4.63;;;2.53;;
3491;SDS011;1760;52.480;13.422;2022-12-07T01:57:00;5.63;;;1.90;;
3491;SDS011;1760;52.480;13.422;2022-12-07T01:59:28;5.27;;;3.80;;
3491;SDS011;1760;52.480;13.422;2022-12-07T02:01:55;4.07;;;2.80;;
3491;SDS011;1760;52.480;13.422;2022-12-07T02:04:22;2.70;;;1.63;;
3491;SDS011;1760;52.480;13.422;2022-12-07T02:06:50;5.80;;;4.03;;
3491;SDS011;1760;52.480;13.422;2022-12-07T02:09:18;4.27;;;2.30;;
3491;SDS011;1760;52.480;13.422;2022-12-07T02:11:45;3.03;;;1.90;;
3491;SDS011;1760;52.480;13.422;2022-12-07T02:14:13;8.10;;;3.27;;
3491;SDS011;1760;52.480;13.422;2022-12-07T02:16:44;6.63;;;2.63;;
3491;SDS011;1760;52.480;13.422;2022-12-07T02:19:26;4.97;;;2.53;;
3491;SDS011;1760;52.480;13.422;2022-12-07T02:22:20;4.40;;;2.60;;
3491;SDS011;1760;52.480;13.422;2022-12-07T02:25:04;3.97;;;2.57;;
3491;SDS011;1760;52.480;13.422;2022-12-07T02:27:43;9.43;;;3.20;;
3491;SDS011;1760;52.480;13.422;2022-12-07T02:35:26;4.63;;;2.40;;
3491;SDS011;1760;52.480;13.422;2022-12-07T02:37:59;3.23;;;2.33;;
3491;SDS011;1760;52.480;13.422;2022-12-07T02:40:35;3.37;;;2.53;;
3491;SDS011;1760;52.480;13.422;2022-12-07T02:43:08;3.87;;;3.10;;
3491;SDS011;1760;52.480;13.422;2022-12-07T02:45:38;4.53;;;2.40;;
3491;SDS011;1760;52.480;13.422;2022-12-07T02:48:07;4.40;;;2.63;;
3491;SDS011;1760;52.480;13.422;2022-12-07T02:50:38;5.30;;;3.20;;
3491;SDS011;1760;52.480;13.422;2022-12-07T02:55:55;4.20;;;2.20;;
3491;SDS011;1760;52.480;13.422;2022-12-07T02:58:24;5.80;;;3.63;;
3491;SDS011;1760;52.480;13.422;2022-12-07T03:01:08;4.87;;;3.63;;
3491;SDS011;1760;52.480;13.422;2022-12-07T03:03:44;7.43;;;3.23;;
3491;SDS011;1760;52.480;13.422;2022-12-07T03:06:22;3.53;;;2.27;;
3491;SDS011;1760;52.480;13.422;2022-12-07T03:08:56;3.27;;;2.73;;
3491;SDS011;1760;52.480;13.422;2022-12-07T03:11:33;5.10;;;3.30;;
3491;SDS011;1760;52.480;13.422;2022-12-07T03:14:09;4.00;;;1.90;;
3491;SDS011;1760;52.480;13.422;2022-12-07T03:16:42;4.87;;;3.10;;
3491;SDS011;1760;52.480;13.422;2022-12-07T03:19:15;4.00;;;3.07;;
3491;SDS011;1760;52.480;13.422;2022-12-07T03:21:49;3.93;;;2.70;;
3491;SDS011;1760;52.480;13.422;2022-12-07T03:24:20;4.80;;;2.70;;
3491;SDS011;1760;52.480;13.422;2022-12-07T03:26:52;4.53;;;2.67;;
3491;SDS011;1760;52.480;13.422;2022-12-07T03:29:27;5.23;;;3.47;;
3491;SDS011;1760;52.480;13.422;2022-12-07T03:31:58;3.03;;;2.73;;
3491;SDS011;1760;52.480;13.422;2022-12-07T03:34:30;4.70;;;2.47;;
3491;SDS011;1760;52.480;13.422;2022-12-07T03:37:02;4.63;;;2.40;;
3491;SDS011;1760;52.480;13.422;2022-12-07T03:39:37;3.80;;;2.80;;
3491;SDS011;1760;52.480;13.422;2022-12-07T03:42:08;4.57;;;2.73;;
3491;SDS011;1760;52.480;13.422;2022-12-07T03:44:37;2.70;;;2.00;;
3491;SDS011;1760;52.480;13.422;2022-12-07T03:47:05;6.03;;;3.40;;
3491;SDS011;1760;52.480;13.422;2022-12-07T03:49:40;3.27;;;2.33;;
3491;SDS011;1760;52.480;13.422;2022-12-07T03:52:16;4.40;;;3.07;;
3491;SDS011;1760;52.480;13.422;2022-12-07T03:54:51;10.30;;;2.90;;
3491;SDS011;1760;52.480;13.422;2022-12-07T03:57:22;4.27;;;2.27;;
3491;SDS011;1760;52.480;13.422;2022-12-07T03:59:51;7.53;;;3.17;;
3491;SDS011;1760;52.480;13.422;2022-12-07T04:02:21;3.67;;;2.80;;
3491;SDS011;1760;52.480;13.422;2022-12-07T04:04:49;5.63;;;3.67;;
3491;SDS011;1760;52.480;13.422;2022-12-07T04:07:18;5.70;;;2.60;;
3491;SDS011;1760;52.480;13.422;2022-12-07T04:09:45;4.90;;;3.20;;
3491;SDS011;1760;52.480;13.422;2022-12-07T04:12:12;8.43;;;3.63;;
3491;SDS011;1760;52.480;13.422;2022-12-07T04:14:38;6.90;;;3.43;;
3491;SDS011;1760;52.480;13.422;2022-12-07T04:17:05;5.90;;;3.37;;
3491;SDS011;1760;52.480;13.422;2022-12-07T04:19:33;7.47;;;3.30;;
3491;SDS011;1760;52.480;13.422;2022-12-07T04:22:01;5.60;;;3.40;;
3491;SDS011;1760;52.480;13.422;2022-12-07T04:24:30;6.80;;;3.67;;
3491;SDS011;1760;52.480;13.422;2022-12-07T04:26:57;6.93;;;3.80;;
3491;SDS011;1760;52.480;13.422;2022-12-07T04:29:25;9.77;;;5.17;;
3491;SDS011;1760;52.480;13.422;2022-12-07T04:31:52;6.73;;;4.53;;
3491;SDS011;1760;52.480;13.422;2022-12-07T04:34:19;8.53;;;4.20;;
3491;SDS011;1760;52.480;13.422;2022-12-07T04:36:46;7.87;;;5.33;;
3491;SDS011;1760;52.480;13.422;2022-12-07T04:39:17;5.63;;;2.77;;
3491;SDS011;1760;52.480;13.422;2022-12-07T04:41:47;5.93;;;3.20;;
3491;SDS011;1760;52.480;13.422;2022-12-07T04:44:14;6.77;;;4.30;;
3491;SDS011;1760;52.480;13.422;2022-12-07T04:46:41;8.00;;;4.30;;
3491;SDS011;1760;52.480;13.422;2022-12-07T04:49:09;8.73;;;4.43;;
3491;SDS011;1760;52.480;13.422;2022-12-07T04:51:41;8.30;;;4.37;;
3491;SDS011;1760;52.480;13.422;2022-12-07T04:54:08;6.17;;;3.97;;
3491;SDS011;1760;52.480;13.422;2022-12-07T04:56:36;10.77;;;5.40;;
3491;SDS011;1760;52.480;13.422;2022-12-07T04:59:05;11.30;;;5.50;;
3491;SDS011;1760;52.480;13.422;2022-12-07T05:01:35;11.50;;;5.33;;
3491;SDS011;1760;52.480;13.422;2022-12-07T05:04:04;13.30;;;5.13;;
3491;SDS011;1760;52.480;13.422;2022-12-07T05:06:31;11.43;;;6.30;;
3491;SDS011;1760;52.480;13.422;2022-12-07T05:08:58;5.57;;;4.20;;
3491;SDS011;1760;52.480;13.422;2022-12-07T05:11:25;9.77;;;5.20;;
3491;SDS011;1760;52.480;13.422;2022-12-07T05:14:08;7.07;;;4.97;;
3491;SDS011;1760;52.480;13.422;2022-12-07T05:16:38;9.23;;;5.20;;
3491;SDS011;1760;52.480;13.422;2022-12-07T05:19:05;12.63;;;5.20;;
3491;SDS011;1760;52.480;13.422;2022-12-07T05:21:33;15.60;;;6.73;;
3491;SDS011;1760;52.480;13.422;2022-12-07T05:24:00;11.17;;;6.10;;
3491;SDS011;1760;52.480;13.422;2022-12-07T05:26:29;8.13;;;4.30;;
3491;SDS011;1760;52.480;13.422;2022-12-07T05:28:56;13.73;;;4.70;;
3491;SDS011;1760;52.480;13.422;2022-12-07T05:31:25;10.57;;;6.93;;
3491;SDS011;1760;52.480;13.422;2022-12-07T05:33:53;12.50;;;6.73;;
3491;SDS011;1760;52.480;13.422;2022-12-07T05:36:20;11.30;;;5.43;;
3491;SDS011;1760;52.480;13.422;2022-12-07T05:38:47;11.03;;;5.13;;
3491;SDS011;1760;52.480;13.422;2022-12-07T05:41:14;8.37;;;6.00;;
3491;SDS011;1760;52.480;13.422;2022-12-07T05:44:00;8.20;;;4.33;;
3491;SDS011;1760;52.480;13.422;2022-12-07T05:46:29;15.00;;;7.80;;
3491;SDS011;1760;52.480;13.422;2022-12-07T05:48:55;11.77;;;6.60;;
3491;SDS011;1760;52.480;13.422;2022-12-07T05:51:22;14.73;;;5.70;;
3491;SDS011;1760;52.480;13.422;2022-12-07T05:53:49;16.70;;;7.10;;
3491;SDS011;1760;52.480;13.422;2022-12-07T05:56:16;17.23;;;8.20;;
3491;SDS011;1760;52.480;13.422;2022-12-07T05:58:46;12.10;;;7.47;;
3491;SDS011;1760;52.480;13.422;2022-12-07T06:01:32;14.10;;;6.27;;
3491;SDS011;1760;52.480;13.422;2022-12-07T06:03:59;20.20;;;9.93;;
3491;SDS011;1760;52.480;13.422;2022-12-07T06:06:26;9.63;;;5.87;;
3491;SDS011;1760;52.480;13.422;2022-12-07T06:08:52;11.77;;;5.87;;
3491;SDS011;1760;52.480;13.422;2022-12-07T06:11:19;7.90;;;5.50;;
3491;SDS011;1760;52.480;13.422;2022-12-07T06:14:04;13.23;;;7.00;;
3491;SDS011;1760;52.480;13.422;2022-12-07T06:16:32;14.93;;;7.70;;
3491;SDS011;1760;52.480;13.422;2022-12-07T06:18:59;8.60;;;6.70;;
3491;SDS011;1760;52.480;13.422;2022-12-07T06:21:26;28.27;;;11.80;;
3491;SDS011;1760;52.480;13.422;2022-12-07T06:23:53;15.40;;;7.27;;
3491;SDS011;1760;52.480;13.422;2022-12-07T06:26:22;9.87;;;6.07;;
3491;SDS011;1760;52.480;13.422;2022-12-07T06:28:51;16.27;;;7.43;;
3491;SDS011;1760;52.480;13.422;2022-12-07T06:31:18;14.33;;;7.27;;
3491;SDS011;1760;52.480;13.422;2022-12-07T06:33:46;15.93;;;7.83;;
3491;SDS011;1760;52.480;13.422;2022-12-07T06:36:13;13.00;;;8.17;;
3491;SDS011;1760;52.480;13.422;2022-12-07T06:38:50;13.33;;;7.13;;
3491;SDS011;1760;52.480;13.422;2022-12-07T06:41:17;15.90;;;6.40;;
3491;SDS011;1760;52.480;13.422;2022-12-07T06:43:44;11.63;;;5.67;;
3491;SDS011;1760;52.480;13.422;2022-12-07T06:46:11;18.37;;;7.20;;
3491;SDS011;1760;52.480;13.422;2022-12-07T06:48:39;10.97;;;7.00;;
3491;SDS011;1760;52.480;13.422;2022-12-07T06:51:11;13.53;;;7.63;;
3491;SDS011;1760;52.480;13.422;2022-12-07T06:53:41;14.70;;;8.10;;
3491;SDS011;1760;52.480;13.422;2022-12-07T06:56:10;18.93;;;7.20;;
3491;SDS011;1760;52.480;13.422;2022-12-07T06:58:39;11.70;;;6.80;;
3491;SDS011;1760;52.480;13.422;2022-12-07T07:01:12;12.10;;;7.17;;
3491;SDS011;1760;52.480;13.422;2022-12-07T07:03:41;13.47;;;9.33;;
3491;SDS011;1760;52.480;13.422;2022-12-07T07:06:10;10.00;;;5.80;;
3491;SDS011;1760;52.480;13.422;2022-12-07T07:08:38;9.67;;;5.53;;
3491;SDS011;1760;52.480;13.422;2022-12-07T07:11:06;9.77;;;6.87;;
3491;SDS011;1760;52.480;13.422;2022-12-07T07:13:34;11.93;;;6.37;;
3491;SDS011;1760;52.480;13.422;2022-12-07T07:16:01;17.30;;;7.80;;
3491;SDS011;1760;52.480;13.422;2022-12-07T07:18:31;16.53;;;7.80;;
3491;SDS011;1760;52.480;13.422;2022-12-07T07:21:02;15.90;;;6.97;;
3491;SDS011;1760;52.480;13.422;2022-12-07T07:23:33;9.47;;;5.27;;
3491;SDS011;1760;52.480;13.422;2022-12-07T07:26:00;14.07;;;7.77;;
3491;SDS011;1760;52.480;13.422;2022-12-07T07:28:27;18.53;;;7.10;;
3491;SDS011;1760;52.480;13.422;2022-12-07T07:30:57;14.43;;;7.80;;
3491;SDS011;1760;52.480;13.422;2022-12-07T07:33:26;11.97;;;6.83;;
3491;SDS011;1760;52.480;13.422;2022-12-07T07:35:56;10.97;;;5.30;;
3491;SDS011;1760;52.480;13.422;2022-12-07T07:38:23;12.20;;;6.17;;
3491;SDS011;1760;52.480;13.422;2022-12-07T07:40:54;15.20;;;7.10;;
3491;SDS011;1760;52.480;13.422;2022-12-07T07:43:21;19.13;;;5.80;;
3491;SDS011;1760;52.480;13.422;2022-12-07T07:45:48;8.50;;;5.27;;
3491;SDS011;1760;52.480;13.422;2022-12-07T07:48:15;8.13;;;4.90;;
3491;SDS011;1760;52.480;13.422;2022-12-07T07:50:42;8.30;;;3.97;;
3491;SDS011;1760;52.480;13.422;2022-12-07T07:53:09;16.93;;;6.13;;
3491;SDS011;1760;52.480;13.422;2022-12-07T07:55:36;12.17;;;6.17;;
3491;SDS011;1760;52.480;13.422;2022-12-07T07:58:04;6.20;;;4.40;;
3491;SDS011;1760;52.480;13.422;2022-12-07T08:00:31;11.47;;;4.63;;
3491;SDS011;1760;52.480;13.422;2022-12-07T08:02:58;13.53;;;5.63;;
3491;SDS011;1760;52.480;13.422;2022-12-07T08:05:31;7.23;;;3.70;;
3491;SDS011;1760;52.480;13.422;2022-12-07T08:07:58;5.43;;;3.67;;
3491;SDS011;1760;52.480;13.422;2022-12-07T08:10:25;7.50;;;4.67;;
3491;SDS011;1760;52.480;13.422;2022-12-07T08:12:52;4.63;;;3.20;;
3491;SDS011;1760;52.480;13.422;2022-12-07T08:15:40;4.30;;;3.33;;
3491;SDS011;1760;52.480;13.422;2022-12-07T08:18:11;6.17;;;3.50;;
3491;SDS011;1760;52.480;13.422;2022-12-07T08:20:38;8.30;;;4.40;;
3491;SDS011;1760;52.480;13.422;2022-12-07T08:23:06;9.10;;;5.33;;
3491;SDS011;1760;52.480;13.422;2022-12-07T08:25:34;4.53;;;3.50;;
3491;SDS011;1760;52.480;13.422;2022-12-07T08:28:01;4.90;;;2.20;;
3491;SDS011;1760;52.480;13.422;2022-12-07T08:30:28;6.73;;;2.60;;
3491;SDS011;1760;52.480;13.422;2022-12-07T08:32:57;5.40;;;3.20;;
3491;SDS011;1760;52.480;13.422;2022-12-07T08:35:24;4.60;;;3.33;;
3491;SDS011;1760;52.480;13.422;2022-12-07T08:37:51;7.30;;;2.97;;
3491;SDS011;1760;52.480;13.422;2022-12-07T08:40:18;7.50;;;2.63;;
3491;SDS011;1760;52.480;13.422;2022-12-07T08:42:48;5.30;;;3.20;;
3491;SDS011;1760;52.480;13.422;2022-12-07T08:45:16;3.23;;;2.93;;
3491;SDS011;1760;52.480;13.422;2022-12-07T08:47:45;2.83;;;1.77;;
3491;SDS011;1760;52.480;13.422;2022-12-07T08:50:18;2.80;;;1.57;;
3491;SDS011;1760;52.480;13.422;2022-12-07T08:52:47;2.00;;;1.53;;
3491;SDS011;1760;52.480;13.422;2022-12-07T08:55:17;2.80;;;1.93;;
3491;SDS011;1760;52.480;13.422;2022-12-07T08:57:45;3.77;;;1.60;;
3491;SDS011;1760;52.480;13.422;2022-12-07T09:00:13;1.63;;;1.43;;
3491;SDS011;1760;52.480;13.422;2022-12-07T09:02:41;2.10;;;1.63;;
3491;SDS011;1760;52.480;13.422;2022-12-07T09:05:09;1.47;;;1.27;;
3491;SDS011;1760;52.480;13.422;2022-12-07T09:07:37;1.37;;;1.20;;
3491;SDS011;1760;52.480;13.422;2022-12-07T09:10:05;1.10;;;0.90;;
3491;SDS011;1760;52.480;13.422;2022-12-07T09:12:34;1.30;;;1.00;;
3491;SDS011;1760;52.480;13.422;2022-12-07T09:15:01;3.10;;;1.90;;
3491;SDS011;1760;52.480;13.422;2022-12-07T09:17:31;3.10;;;1.23;;
3491;SDS011;1760;52.480;13.422;2022-12-07T09:20:01;1.77;;;1.50;;
3491;SDS011;1760;52.480;13.422;2022-12-07T09:22:29;0.93;;;0.83;;
3491;SDS011;1760;52.480;13.422;2022-12-07T09:24:58;1.30;;;1.13;;
3491;SDS011;1760;52.480;13.422;2022-12-07T09:27:25;1.70;;;1.10;;
3491;SDS011;1760;52.480;13.422;2022-12-07T09:29:53;1.33;;;0.93;;
3491;SDS011;1760;52.480;13.422;2022-12-07T09:32:21;1.63;;;1.30;;
3491;SDS011;1760;52.480;13.422;2022-12-07T09:34:53;1.40;;;0.93;;
3491;SDS011;1760;52.480;13.422;2022-12-07T09:37:22;1.90;;;1.30;;
3491;SDS011;1760;52.480;13.422;2022-12-07T09:39:49;1.90;;;1.77;;
3491;SDS011;1760;52.480;13.422;2022-12-07T09:45:01;1.90;;;1.17;;
3491;SDS011;1760;52.480;13.422;2022-12-07T09:47:32;5.23;;;2.20;;
3491;SDS011;1760;52.480;13.422;2022-12-07T09:50:00;1.30;;;1.00;;
3491;SDS011;1760;52.480;13.422;2022-12-07T09:52:31;1.93;;;1.20;;
3491;SDS011;1760;52.480;13.422;2022-12-07T09:54:58;1.93;;;1.80;;
3491;SDS011;1760;52.480;13.422;2022-12-07T09:57:28;1.60;;;1.30;;
3491;SDS011;1760;52.480;13.422;2022-12-07T10:00:03;2.30;;;1.70;;
3491;SDS011;1760;52.480;13.422;2022-12-07T10:02:34;2.13;;;1.30;;
3491;SDS011;1760;52.480;13.422;2022-12-07T10:05:04;1.57;;;1.13;;
3491;SDS011;1760;52.480;13.422;2022-12-07T10:07:33;2.30;;;1.43;;
3491;SDS011;1760;52.480;13.422;2022-12-07T10:10:02;2.03;;;1.80;;
3491;SDS011;1760;52.480;13.422;2022-12-07T10:12:29;2.33;;;1.67;;
3491;SDS011;1760;52.480;13.422;2022-12-07T10:14:59;2.50;;;1.50;;
3491;SDS011;1760;52.480;13.422;2022-12-07T10:17:32;2.50;;;1.63;;
3491;SDS011;1760;52.480;13.422;2022-12-07T10:20:12;3.80;;;2.70;;
3491;SDS011;1760;52.480;13.422;2022-12-07T10:22:54;2.23;;;1.57;;
3491;SDS011;1760;52.480;13.422;2022-12-07T10:25:31;1.83;;;1.73;;
3491;SDS011;1760;52.480;13.422;2022-12-07T10:28:03;2.43;;;2.07;;
3491;SDS011;1760;52.480;13.422;2022-12-07T10:30:49;4.83;;;1.90;;
3491;SDS011;1760;52.480;13.422;2022-12-07T10:33:27;5.30;;;1.53;;
3491;SDS011;1760;52.480;13.422;2022-12-07T10:35:56;1.83;;;1.33;;
3491;SDS011;1760;52.480;13.422;2022-12-07T10:38:23;3.90;;;2.00;;
3491;SDS011;1760;52.480;13.422;2022-12-07T10:41:02;2.20;;;1.50;;
3491;SDS011;1760;52.480;13.422;2022-12-07T10:43:31;1.13;;;1.03;;
3491;SDS011;1760;52.480;13.422;2022-12-07T10:46:13;2.57;;;1.57;;
3491;SDS011;1760;52.480;13.422;2022-12-07T10:49:03;2.07;;;1.47;;
3491;SDS011;1760;52.480;13.422;2022-12-07T10:51:43;3.20;;;1.30;;
3491;SDS011;1760;52.480;13.422;2022-12-07T10:54:18;3.60;;;1.97;;
3491;SDS011;1760;52.480;13.422;2022-12-07T10:56:54;3.93;;;1.90;;
3491;SDS011;1760;52.480;13.422;2022-12-07T10:59:45;2.47;;;1.40;;
3491;SDS011;1760;52.480;13.422;2022-12-07T11:02:26;2.00;;;1.40;;
3491;SDS011;1760;52.480;13.422;2022-12-07T11:05:13;2.17;;;1.97;;
3491;SDS011;1760;52.480;13.422;2022-12-07T11:07:51;1.70;;;1.47;;
3491;SDS011;1760;52.480;13.422;2022-12-07T11:10:26;3.13;;;2.03;;
3491;SDS011;1760;52.480;13.422;2022-12-07T11:15:54;3.00;;;1.97;;
3491;SDS011;1760;52.480;13.422;2022-12-07T11:18:36;1.67;;;1.50;;
3491;SDS011;1760;52.480;13.422;2022-12-07T11:21:12;3.57;;;1.33;;
3491;SDS011;1760;52.480;13.422;2022-12-07T11:23:48;4.00;;;2.33;;
3491;SDS011;1760;52.480;13.422;2022-12-07T11:26:23;1.97;;;1.77;;
3491;SDS011;1760;52.480;13.422;2022-12-07T11:29:08;1.80;;;1.30;;
3491;SDS011;1760;52.480;13.422;2022-12-07T11:31:51;2.03;;;1.60;;
3491;SDS011;1760;52.480;13.422;2022-12-07T11:34:26;1.83;;;1.53;;
3491;SDS011;1760;52.480;13.422;2022-12-07T11:37:00;2.10;;;1.57;;
3491;SDS011;1760;52.480;13.422;2022-12-07T11:39:35;3.30;;;2.00;;
3491;SDS011;1760;52.480;13.422;2022-12-07T11:42:05;1.83;;;1.40;;
3491;SDS011;1760;52.480;13.422;2022-12-07T11:44:39;3.90;;;2.20;;
3491;SDS011;1760;52.480;13.422;2022-12-07T11:47:15;4.37;;;2.37;;
3491;SDS011;1760;52.480;13.422;2022-12-07T11:49:50;1.80;;;1.53;;
3491;SDS011;1760;52.480;13.422;2022-12-07T11:52:24;2.03;;;1.47;;
3491;SDS011;1760;52.480;13.422;2022-12-07T11:54:53;2.77;;;2.40;;
3491;SDS011;1760;52.480;13.422;2022-12-07T11:57:24;2.30;;;1.97;;
3491;SDS011;1760;52.480;13.422;2022-12-07T11:59:59;2.40;;;1.80;;
3491;SDS011;1760;52.480;13.422;2022-12-07T12:02:32;1.80;;;1.43;;
3491;SDS011;1760;52.480;13.422;2022-12-07T12:05:07;3.90;;;1.97;;
3491;SDS011;1760;52.480;13.422;2022-12-07T12:07:41;2.60;;;2.40;;
3491;SDS011;1760;52.480;13.422;2022-12-07T12:10:15;4.47;;;1.67;;
3491;SDS011;1760;52.480;13.422;2022-12-07T12:12:55;2.53;;;2.20;;
3491;SDS011;1760;52.480;13.422;2022-12-07T12:15:44;1.50;;;1.10;;
3491;SDS011;1760;52.480;13.422;2022-12-07T12:18:24;4.97;;;1.30;;
3491;SDS011;1760;52.480;13.422;2022-12-07T12:21:03;2.10;;;1.90;;
3491;SDS011;1760;52.480;13.422;2022-12-07T12:23:35;1.40;;;1.27;;
3491;SDS011;1760;52.480;13.422;2022-12-07T12:26:07;2.70;;;1.60;;
3491;SDS011;1760;52.480;13.422;2022-12-07T12:28:49;2.40;;;1.77;;
3491;SDS011;1760;52.480;13.422;2022-12-07T12:31:34;2.80;;;1.77;;
3491;SDS011;1760;52.480;13.422;2022-12-07T12:34:10;2.20;;;1.50;;
3491;SDS011;1760;52.480;13.422;2022-12-07T12:37:11;1.20;;;1.10;;
3491;SDS011;1760;52.480;13.422;2022-12-07T12:42:56;2.73;;;2.10;;
3491;SDS011;1760;52.480;13.422;2022-12-07T12:45:24;4.10;;;1.47;;
3491;SDS011;1760;52.480;13.422;2022-12-07T12:47:57;2.80;;;1.63;;
3491;SDS011;1760;52.480;13.422;2022-12-07T12:50:28;3.37;;;1.43;;
3491;SDS011;1760;52.480;13.422;2022-12-07T12:59:21;1.40;;;1.30;;
3491;SDS011;1760;52.480;13.422;2022-12-07T13:01:50;3.63;;;1.13;;
3491;SDS011;1760;52.480;13.422;2022-12-07T13:04:29;2.20;;;1.70;;
3491;SDS011;1760;52.480;13.422;2022-12-07T13:07:02;4.53;;;1.80;;
3491;SDS011;1760;52.480;13.422;2022-12-07T13:09:31;2.13;;;1.37;;
3491;SDS011;1760;52.480;13.422;2022-12-07T13:12:02;2.37;;;1.60;;
3491;SDS011;1760;52.480;13.422;2022-12-07T13:20:44;2.33;;;1.80;;
3491;SDS011;1760;52.480;13.422;2022-12-07T13:23:19;6.47;;;1.90;;
3491;SDS011;1760;52.480;13.422;2022-12-07T13:25:54;4.70;;;2.17;;
3491;SDS011;1760;52.480;13.422;2022-12-07T13:28:32;11.00;;;1.57;;
3491;SDS011;1760;52.480;13.422;2022-12-07T13:31:11;2.10;;;1.00;;
3491;SDS011;1760;52.480;13.422;2022-12-07T13:34:27;7.70;;;2.40;;
3491;SDS011;1760;52.480;13.422;2022-12-07T13:36:54;14.17;;;4.70;;
3491;SDS011;1760;52.480;13.422;2022-12-07T13:39:27;5.63;;;1.83;;
3491;SDS011;1760;52.480;13.422;2022-12-07T13:41:55;1.53;;;1.10;;
3491;SDS011;1760;52.480;13.422;2022-12-07T13:44:24;1.80;;;1.63;;
3491;SDS011;1760;52.480;13.422;2022-12-07T13:46:55;2.47;;;0.80;;
3491;SDS011;1760;52.480;13.422;2022-12-07T13:49:32;5.40;;;1.20;;
3491;SDS011;1760;52.480;13.422;2022-12-07T13:52:13;4.63;;;1.10;;
3491;SDS011;1760;52.480;13.422;2022-12-07T13:54:45;1.00;;;0.77;;
3491;SDS011;1760;52.480;13.422;2022-12-07T13:57:16;1.73;;;1.17;;
3491;SDS011;1760;52.480;13.422;2022-12-07T13:59:43;2.63;;;1.07;;
3491;SDS011;1760;52.480;13.422;2022-12-07T14:02:18;1.37;;;1.00;;
3491;SDS011;1760;52.480;13.422;2022-12-07T14:04:47;2.30;;;1.03;;
3491;SDS011;1760;52.480;13.422;2022-12-07T14:07:23;2.53;;;1.03;;
3491;SDS011;1760;52.480;13.422;2022-12-07T14:09:55;2.20;;;1.50;;
3491;SDS011;1760;52.480;13.422;2022-12-07T14:12:27;2.60;;;1.20;;
3491;SDS011;1760;52.480;13.422;2022-12-07T14:14:58;1.50;;;1.20;;
3491;SDS011;1760;52.480;13.422;2022-12-07T14:17:28;1.60;;;1.23;;
3491;SDS011;1760;52.480;13.422;2022-12-07T14:19:56;1.50;;;0.90;;
3491;SDS011;1760;52.480;13.422;2022-12-07T14:22:26;2.50;;;1.10;;
3491;SDS011;1760;52.480;13.422;2022-12-07T14:24:58;14.27;;;1.60;;
3491;SDS011;1760;52.480;13.422;2022-12-07T14:27:46;1.13;;;0.97;;
3491;SDS011;1760;52.480;13.422;2022-12-07T14:30:16;1.57;;;1.27;;
3491;SDS011;1760;52.480;13.422;2022-12-07T14:32:50;4.47;;;1.10;;
3491;SDS011;1760;52.480;13.422;2022-12-07T14:35:20;1.90;;;1.33;;
3491;SDS011;1760;52.480;13.422;2022-12-07T14:37:47;13.73;;;1.57;;
3491;SDS011;1760;52.480;13.422;2022-12-07T14:40:16;1.37;;;1.10;;
3491;SDS011;1760;52.480;13.422;2022-12-07T14:42:47;1.10;;;0.90;;
3491;SDS011;1760;52.480;13.422;2022-12-07T14:45:22;1.80;;;1.50;;
3491;SDS011;1760;52.480;13.422;2022-12-07T14:47:50;2.80;;;1.50;;
3491;SDS011;1760;52.480;13.422;2022-12-07T14:50:18;2.17;;;1.40;;
3491;SDS011;1760;52.480;13.422;2022-12-07T14:52:47;3.17;;;1.40;;
3491;SDS011;1760;52.480;13.422;2022-12-07T14:55:18;1.67;;;0.90;;
3491;SDS011;1760;52.480;13.422;2022-12-07T14:57:49;1.40;;;0.90;;
3491;SDS011;1760;52.480;13.422;2022-12-07T15:00:17;1.10;;;0.73;;
3491;SDS011;1760;52.480;13.422;2022-12-07T15:02:46;1.83;;;1.30;;
3491;SDS011;1760;52.480;13.422;2022-12-07T15:05:15;4.80;;;1.07;;
3491;SDS011;1760;52.480;13.422;2022-12-07T15:07:43;5.30;;;1.40;;
3491;SDS011;1760;52.480;13.422;2022-12-07T15:10:14;2.40;;;1.47;;
3491;SDS011;1760;52.480;13.422;2022-12-07T15:12:44;0.80;;;0.50;;
3491;SDS011;1760;52.480;13.422;2022-12-07T15:15:10;4.40;;;1.30;;
3491;SDS011;1760;52.480;13.422;2022-12-07T15:17:37;1.73;;;0.90;;
3491;SDS011;1760;52.480;13.422;2022-12-07T15:20:10;2.10;;;1.37;;
3491;SDS011;1760;52.480;13.422;2022-12-07T15:22:40;2.27;;;1.07;;
3491;SDS011;1760;52.480;13.422;2022-12-07T15:25:08;1.53;;;1.20;;
3491;SDS011;1760;52.480;13.422;2022-12-07T15:27:36;1.57;;;0.97;;
3491;SDS011;1760;52.480;13.422;2022-12-07T15:30:03;1.80;;;1.17;;
3491;SDS011;1760;52.480;13.422;2022-12-07T15:32:33;3.23;;;1.20;;
3491;SDS011;1760;52.480;13.422;2022-12-07T15:35:10;1.97;;;0.90;;
3491;SDS011;1760;52.480;13.422;2022-12-07T15:37:37;5.00;;;1.17;;
3491;SDS011;1760;52.480;13.422;2022-12-07T15:40:09;1.30;;;0.93;;
3491;SDS011;1760;52.480;13.422;2022-12-07T15:42:41;2.10;;;1.47;;
3491;SDS011;1760;52.480;13.422;2022-12-07T15:45:09;1.77;;;1.60;;
3491;SDS011;1760;52.480;13.422;2022-12-07T15:47:36;2.97;;;2.43;;
3491;SDS011;1760;52.480;13.422;2022-12-07T15:50:07;6.37;;;0.83;;